createdAt,value
2018-03-02T00:01:52.968Z,78.88
2018-03-02T00:04:22.169Z,84.13
2018-03-02T00:06:51.363Z,90.93
2018-03-02T00:09:22.469Z,107.95
2018-03-02T00:11:53.785Z,90.70
2018-03-02T00:14:25.993Z,125.94
2018-03-02T00:16:56.895Z,151.63
2018-03-02T00:19:28.533Z,164.78
2018-03-02T00:22:00.591Z,151.88
2018-03-02T00:24:31.009Z,166.15
2018-03-02T00:27:00.423Z,150.25
2018-03-02T00:29:33.971Z,109.16
2018-03-02T00:32:03.069Z,107.90
2018-03-02T00:34:33.256Z,99.25
2018-03-02T00:37:03.883Z,100.82
2018-03-02T00:39:34.491Z,106.46
2018-03-02T00:42:08.151Z,95.20
2018-03-02T00:44:37.425Z,101.38
2018-03-02T00:47:06.819Z,93.77
2018-03-02T00:49:39.630Z,95.12
2018-03-02T00:52:09.037Z,108.00
2018-03-02T00:54:41.091Z,95.22
2018-03-02T00:57:11.716Z,93.70
2018-03-02T00:59:42.460Z,93.10
2018-03-02T01:02:12.217Z,98.15
2018-03-02T01:04:44.322Z,100.24
2018-03-02T01:07:15.114Z,80.54
2018-03-02T01:09:45.672Z,102.70
2018-03-02T01:12:18.015Z,107.30
2018-03-02T01:14:48.480Z,102.65
2018-03-02T01:17:19.024Z,109.78
2018-03-02T01:19:49.819Z,108.45
2018-03-02T01:22:22.832Z,90.08
2018-03-02T01:24:54.595Z,103.57
2018-03-02T01:27:24.301Z,120.57
2018-03-02T01:29:53.791Z,145.97
2018-03-02T01:32:24.517Z,120.35
2018-03-02T01:34:56.073Z,114.22
2018-03-02T01:37:26.560Z,112.44
2018-03-02T01:40:01.020Z,101.47
2018-03-02T01:42:34.960Z,98.65
2018-03-02T01:45:04.426Z,103.55
2018-03-02T01:47:33.668Z,94.70
2018-03-02T01:50:03.003Z,110.18
2018-03-02T01:52:33.265Z,96.78
2018-03-02T01:55:02.452Z,86.00
2018-03-02T01:57:33.695Z,96.43
2018-03-02T02:00:07.582Z,96.13
2018-03-02T02:02:36.839Z,98.33
2018-03-02T02:05:08.202Z,117.87
2018-03-02T02:07:37.443Z,101.78
2018-03-02T02:10:08.078Z,107.63
2018-03-02T02:12:37.567Z,114.37
2018-03-02T02:15:08.916Z,112.80
2018-03-02T02:17:42.179Z,116.76
2018-03-02T02:20:14.444Z,161.15
2018-03-02T02:22:43.770Z,157.27
2018-03-02T02:25:13.637Z,133.53
2018-03-02T02:27:45.353Z,122.32
2018-03-02T02:30:14.680Z,114.68
2018-03-02T02:32:45.158Z,115.70
2018-03-02T02:35:15.928Z,105.78
2018-03-02T02:37:46.434Z,108.47
2018-03-02T02:40:20.682Z,88.30
2018-03-02T02:42:50.153Z,111.55
2018-03-02T02:45:19.635Z,119.62
2018-03-02T02:47:48.876Z,108.07
2018-03-02T02:50:21.405Z,94.50
2018-03-02T02:52:50.772Z,97.28
2018-03-02T02:55:21.856Z,101.32
2018-03-02T02:57:53.691Z,96.06
2018-03-02T03:00:24.254Z,94.66
2018-03-02T03:02:54.142Z,101.90
2018-03-02T03:05:25.256Z,98.68
2018-03-02T03:07:55.779Z,112.20
2018-03-02T03:10:28.139Z,87.08
2018-03-02T03:12:57.404Z,92.45
2018-03-02T03:15:27.291Z,97.10
2018-03-02T03:18:00.646Z,106.46
2018-03-02T03:20:30.212Z,86.04
2018-03-02T03:23:02.139Z,87.87
2018-03-02T03:25:33.487Z,91.54
2018-03-02T03:28:03.075Z,88.53
2018-03-02T03:30:34.224Z,80.32
2018-03-02T03:33:05.888Z,82.42
2018-03-02T03:35:36.096Z,80.84
2018-03-02T03:38:07.757Z,78.08
2018-03-02T03:40:37.387Z,78.82
2018-03-02T03:43:08.439Z,85.80
2018-03-02T03:45:40.799Z,93.72
2018-03-02T03:48:13.905Z,91.80
2018-03-02T03:50:43.098Z,86.65
2018-03-02T03:53:12.686Z,80.38
2018-03-02T03:55:44.752Z,67.50
2018-03-02T03:58:16.036Z,77.57
2018-03-02T04:00:46.047Z,77.70
2018-03-02T04:03:16.954Z,83.12
2018-03-02T04:05:47.751Z,68.08
2018-03-02T04:08:18.827Z,81.64
2018-03-02T04:10:49.039Z,83.08
2018-03-02T04:13:18.982Z,83.93
2018-03-02T04:15:51.078Z,79.66
2018-03-02T04:18:22.788Z,70.82
2018-03-02T04:20:53.445Z,73.62
2018-03-02T04:23:25.320Z,78.40
2018-03-02T04:25:55.444Z,79.82
2018-03-02T04:28:26.683Z,99.52
2018-03-02T04:30:55.991Z,92.90
2018-03-02T04:33:28.703Z,114.75
2018-03-02T04:35:58.526Z,88.47
2018-03-02T04:38:27.958Z,99.85
2018-03-02T04:41:01.308Z,90.28
2018-03-02T04:43:31.595Z,94.45
2018-03-02T04:46:01.860Z,85.66
2018-03-02T04:48:32.799Z,79.47
2018-03-02T04:51:03.928Z,79.20
2018-03-02T04:53:34.499Z,86.00
2018-03-02T04:56:04.684Z,84.26
2018-03-02T04:58:40.472Z,96.67
2018-03-02T05:01:09.547Z,81.97
2018-03-02T05:03:38.716Z,100.73
2018-03-02T05:06:09.652Z,101.60
2018-03-02T05:08:40.284Z,112.72
2018-03-02T05:11:11.184Z,119.03
2018-03-02T05:13:41.498Z,121.97
2018-03-02T05:16:11.084Z,122.87
2018-03-02T05:18:42.047Z,126.22
2018-03-02T05:21:13.861Z,117.30
2018-03-02T05:23:43.840Z,116.37
2018-03-02T05:26:14.387Z,108.15
2018-03-02T05:28:46.179Z,120.02
2018-03-02T05:31:15.874Z,120.68
2018-03-02T05:33:47.057Z,139.90
2018-03-02T05:36:19.837Z,127.10
2018-03-02T05:38:50.335Z,112.33
2018-03-02T05:41:20.278Z,84.80
2018-03-02T05:43:50.884Z,85.93
2018-03-02T05:46:27.528Z,79.59
2018-03-02T05:48:56.547Z,93.93
2018-03-02T05:51:25.976Z,93.50
2018-03-02T05:53:55.371Z,89.45
2018-03-02T05:56:24.832Z,80.12
2018-03-02T05:58:55.595Z,78.82
2018-03-02T06:01:26.250Z,98.68
2018-03-02T06:04:00.127Z,88.70
2018-03-02T06:06:29.398Z,106.33
2018-03-02T06:09:01.013Z,100.45
2018-03-02T06:11:31.428Z,101.97
2018-03-02T06:14:01.521Z,100.38
2018-03-02T06:16:31.426Z,95.20
2018-03-02T06:19:02.520Z,104.90
2018-03-02T06:21:33.104Z,107.87
2018-03-02T06:24:04.488Z,110.32
2018-03-02T06:26:34.996Z,96.93
2018-03-02T06:29:05.947Z,113.35
2018-03-02T06:31:36.872Z,123.25
2018-03-02T06:34:07.785Z,121.80
2018-03-02T06:36:38.703Z,97.07
2018-03-02T06:39:10.163Z,94.08
2018-03-02T06:41:44.127Z,92.36
2018-03-02T06:44:13.318Z,95.78
2018-03-02T06:46:43.566Z,121.34
2018-03-02T06:49:15.833Z,105.44
2018-03-02T06:51:46.289Z,89.90
2018-03-02T06:54:16.616Z,93.50
2018-03-02T06:56:46.995Z,60.63
2018-03-02T06:59:18.368Z,87.85
2018-03-02T07:01:49.626Z,84.67
2018-03-02T07:04:20.896Z,68.70
2018-03-02T07:06:51.338Z,72.95
2018-03-02T07:09:20.168Z,52.53
2018-03-02T07:11:51.245Z,77.05
2018-03-02T07:14:26.319Z,92.74
2018-03-02T07:17:03.035Z,28.33
2018-03-02T07:19:32.341Z,65.65
2018-03-02T07:22:01.511Z,72.37
2018-03-02T07:24:30.575Z,71.14
2018-03-02T07:26:59.816Z,54.03
2018-03-02T07:29:29.326Z,39.87
2018-03-02T07:31:59.875Z,23.70
2018-03-02T07:34:30.636Z,62.10
2018-03-02T07:37:00.929Z,48.83
2018-03-02T07:39:32.311Z,41.02
2018-03-02T07:42:02.843Z,37.08
2018-03-02T07:44:35.505Z,51.00
2018-03-02T07:47:04.407Z,52.43
2018-03-02T07:49:35.730Z,53.80
2018-03-02T07:52:05.314Z,61.08
2018-03-02T07:54:35.935Z,49.58
2018-03-02T07:57:06.508Z,50.63
2018-03-02T07:59:38.055Z,55.38
2018-03-02T08:02:08.766Z,80.03
2018-03-02T08:04:40.087Z,37.86
2018-03-02T08:07:11.180Z,48.92
2018-03-02T08:09:42.528Z,89.55
2018-03-02T08:12:14.398Z,69.50
2018-03-02T08:14:45.974Z,61.28
2018-03-02T08:17:16.111Z,28.86
2018-03-02T08:19:45.283Z,55.67
2018-03-02T08:22:16.979Z,76.08
2018-03-02T08:24:47.939Z,53.72
2018-03-02T08:27:17.094Z,67.50
2018-03-02T08:29:54.552Z,80.92
2018-03-02T08:32:23.835Z,65.32
2018-03-02T08:34:53.365Z,37.15
2018-03-02T08:37:23.664Z,31.58
2018-03-02T08:39:55.588Z,67.06
2018-03-02T08:42:25.000Z,57.90
2018-03-02T08:44:55.567Z,61.34
2018-03-02T08:47:27.623Z,53.28
2018-03-02T08:49:58.490Z,62.38
2018-03-02T08:52:27.587Z,59.45
2018-03-02T08:54:58.312Z,50.70
2018-03-02T08:57:28.236Z,52.08
2018-03-02T08:59:58.679Z,59.65
2018-03-02T09:02:29.284Z,66.06
2018-03-02T09:04:59.693Z,51.56
2018-03-02T09:07:31.484Z,45.96
2018-03-02T09:10:02.588Z,70.12
2018-03-02T09:12:33.184Z,58.07
2018-03-02T09:15:03.795Z,49.08
2018-03-02T09:17:34.710Z,39.90
2018-03-02T09:20:05.476Z,45.92
2018-03-02T09:22:34.590Z,52.05
2018-03-02T09:25:03.827Z,43.97
2018-03-02T09:27:32.890Z,46.33
2018-03-02T09:30:01.830Z,63.70
2018-03-02T09:32:30.774Z,66.77
2018-03-02T09:34:59.203Z,69.90
2018-03-02T09:37:28.311Z,85.93
2018-03-02T09:39:57.260Z,59.07
2018-03-02T09:42:26.137Z,52.30
2018-03-02T09:44:55.073Z,38.17
2018-03-02T09:47:24.331Z,53.47
2018-03-02T09:49:53.144Z,45.07
2018-03-02T09:52:21.970Z,62.60
2018-03-02T09:54:51.097Z,52.40
2018-03-02T09:57:20.219Z,58.80
2018-03-02T09:59:49.097Z,39.37
2018-03-02T10:02:18.730Z,44.97
2018-03-02T10:04:48.276Z,28.38
2018-03-02T10:07:17.431Z,45.57
2018-03-02T10:09:46.644Z,36.80
2018-03-02T10:12:15.809Z,44.70
2018-03-02T10:14:44.903Z,51.07
2018-03-02T10:17:13.606Z,39.23
2018-03-02T10:19:42.689Z,41.17
2018-03-02T10:22:11.816Z,48.87
2018-03-02T10:24:40.871Z,53.97
2018-03-02T10:27:09.776Z,48.63
2018-03-02T10:29:39.044Z,28.47
2018-03-02T10:32:07.868Z,57.17
2018-03-02T10:34:36.785Z,39.83
2018-03-02T10:37:05.875Z,64.40
2018-03-02T10:39:34.972Z,66.13
2018-03-02T10:42:03.850Z,63.17
2018-03-02T10:44:33.112Z,77.82
2018-03-02T10:47:02.503Z,176.97
2018-03-02T10:49:31.695Z,101.30
2018-03-02T10:52:00.776Z,95.30
2018-03-02T10:54:29.868Z,62.33
2018-03-02T10:56:58.645Z,48.57
2018-03-02T10:59:27.513Z,52.33
2018-03-02T11:01:56.591Z,36.30
2018-03-02T11:04:31.179Z,41.55
2018-03-02T11:07:00.400Z,47.65
2018-03-02T11:09:28.936Z,48.37
2018-03-02T11:11:58.017Z,45.40
2018-03-02T11:14:27.374Z,44.13
2018-03-02T11:16:56.456Z,44.03
2018-03-02T11:19:25.266Z,54.73
2018-03-02T11:21:54.160Z,54.97
2018-03-02T11:24:22.986Z,63.43
2018-03-02T11:26:51.860Z,43.17
2018-03-02T11:29:20.879Z,55.33
2018-03-02T11:31:49.772Z,55.43
2018-03-02T11:34:18.652Z,43.90
2018-03-02T11:36:47.595Z,51.87
2018-03-02T11:39:16.452Z,49.90
2018-03-02T11:41:45.611Z,49.47
2018-03-02T11:44:14.809Z,41.58
2018-03-02T11:46:43.627Z,49.83
2018-03-02T11:49:12.453Z,63.50
2018-03-02T11:51:41.675Z,38.17
2018-03-02T11:54:10.571Z,37.80
2018-03-02T11:56:39.731Z,41.45
2018-03-02T11:59:08.895Z,38.53
2018-03-02T12:01:37.761Z,45.53
2018-03-02T12:04:06.856Z,33.50
2018-03-02T12:06:36.285Z,90.37
2018-03-02T12:09:04.527Z,40.43
2018-03-02T12:11:33.351Z,33.37
2018-03-02T12:14:02.662Z,41.42
2018-03-02T12:16:31.743Z,30.65
2018-03-02T12:19:01.418Z,47.97
2018-03-02T12:21:30.625Z,44.97
2018-03-02T12:23:59.818Z,42.27
2018-03-02T12:26:28.988Z,40.80
2018-03-02T12:28:58.992Z,38.25
2018-03-02T12:31:28.255Z,47.80
2018-03-02T12:33:57.536Z,47.83
2018-03-02T12:36:28.804Z,37.42
2018-03-02T12:38:57.899Z,40.03
2018-03-02T12:41:27.048Z,38.83
2018-03-02T12:43:57.687Z,28.00
2018-03-02T12:46:28.127Z,31.90
2018-03-02T12:48:58.911Z,40.30
2018-03-02T12:51:29.724Z,31.25
2018-03-02T12:54:00.678Z,45.68
2018-03-02T12:56:31.152Z,38.68
2018-03-02T12:59:01.924Z,38.65
2018-03-02T13:01:32.862Z,35.65
2018-03-02T13:04:04.234Z,38.78
2018-03-02T13:06:34.778Z,41.80
2018-03-02T13:09:05.180Z,47.25
2018-03-02T13:11:35.574Z,43.75
2018-03-02T13:14:06.256Z,36.72
2018-03-02T13:16:37.639Z,43.76
2018-03-02T13:19:08.267Z,41.67
2018-03-02T13:21:39.651Z,44.62
2018-03-02T13:24:10.706Z,40.80
2018-03-02T13:26:52.316Z,38.83
2018-03-02T13:29:21.369Z,35.58
2018-03-02T13:31:50.558Z,48.35
2018-03-02T13:34:30.831Z,41.57
2018-03-02T13:36:59.936Z,48.15
2018-03-02T13:39:40.191Z,37.58
2018-03-02T13:42:10.191Z,40.00
2018-03-02T13:44:39.008Z,37.27
2018-03-02T13:47:08.111Z,37.37
2018-03-02T13:49:48.248Z,43.63
2018-03-02T13:52:17.125Z,46.63
2018-03-02T13:54:46.150Z,45.87
2018-03-02T13:57:26.243Z,32.13
2018-03-02T13:59:55.319Z,34.30
2018-03-02T14:02:35.031Z,35.77
2018-03-02T14:05:03.900Z,43.33
2018-03-02T14:07:32.780Z,33.53
2018-03-02T14:10:01.868Z,26.93
2018-03-02T14:12:30.702Z,33.10
2018-03-02T14:14:59.962Z,32.60
2018-03-02T14:17:28.784Z,42.97
2018-03-02T14:19:57.727Z,39.17
2018-03-02T14:22:26.934Z,35.90
2018-03-02T14:24:55.701Z,33.33
2018-03-02T14:27:24.766Z,38.23
2018-03-02T14:29:53.930Z,34.73
2018-03-02T14:32:23.079Z,33.93
2018-03-02T14:34:52.544Z,31.98
2018-03-02T14:37:21.724Z,36.42
2018-03-02T14:39:51.120Z,36.53
2018-03-02T14:42:20.325Z,31.58
2018-03-02T14:44:49.494Z,40.03
2018-03-02T14:47:18.644Z,35.97
2018-03-02T14:49:48.008Z,40.35
2018-03-02T14:52:17.468Z,33.90
2018-03-02T14:54:46.813Z,40.53
2018-03-02T14:57:17.452Z,41.34
2018-03-02T14:59:47.204Z,42.20
2018-03-02T15:02:17.908Z,33.35
2018-03-02T15:04:48.796Z,42.83
2018-03-02T15:07:19.828Z,34.75
2018-03-02T15:09:51.579Z,35.83
2018-03-02T15:12:21.282Z,36.00
2018-03-02T15:14:51.885Z,37.63
2018-03-02T15:17:22.742Z,51.63
2018-03-02T15:19:53.598Z,61.40
2018-03-02T15:22:24.223Z,52.42
2018-03-02T15:24:54.768Z,48.25
2018-03-02T15:27:25.788Z,47.50
2018-03-02T15:29:56.723Z,37.90
2018-03-02T15:32:28.097Z,43.00
2018-03-02T15:34:58.980Z,54.88
2018-03-02T15:37:29.540Z,47.44
2018-03-02T15:40:00.835Z,48.12
2018-03-02T15:42:31.304Z,38.72
2018-03-02T15:45:01.849Z,35.78
2018-03-02T15:47:32.779Z,34.95
2018-03-02T15:50:03.644Z,35.17
2018-03-02T15:52:34.613Z,29.84
2018-03-02T15:55:05.514Z,36.22
2018-03-02T15:57:36.527Z,48.53
2018-03-02T16:00:07.980Z,37.30
2018-03-02T16:02:38.524Z,38.28
2018-03-02T16:05:08.980Z,35.90
2018-03-02T16:07:39.847Z,34.05
2018-03-02T16:10:10.992Z,32.50
2018-03-02T16:12:41.857Z,40.50
2018-03-02T16:15:13.340Z,47.78
2018-03-02T16:17:44.700Z,65.90
2018-03-02T16:20:15.151Z,65.90
2018-03-02T16:22:49.851Z,74.90
2018-03-02T16:25:19.614Z,72.78
2018-03-02T16:27:49.746Z,64.80
2018-03-02T16:30:19.156Z,53.63
2018-03-02T16:32:49.836Z,62.74
2018-03-02T16:35:20.416Z,64.46
2018-03-02T16:37:51.365Z,59.06
2018-03-02T16:40:22.534Z,58.70
2018-03-02T16:42:52.150Z,51.67
2018-03-02T16:45:22.545Z,62.16
2018-03-02T16:47:53.308Z,45.12
2018-03-02T16:50:24.737Z,46.22
2018-03-02T16:52:55.139Z,60.20
2018-03-02T16:55:26.030Z,79.72
2018-03-02T16:57:58.032Z,82.96
2018-03-02T17:00:27.262Z,61.40
2018-03-02T17:02:58.237Z,48.47
2018-03-02T17:05:28.537Z,50.70
2018-03-02T17:07:59.972Z,42.20
2018-03-02T17:10:33.169Z,43.60
2018-03-02T17:13:02.357Z,63.03
2018-03-02T17:15:33.006Z,102.05
2018-03-02T17:18:04.857Z,101.45
2018-03-02T17:20:34.103Z,77.10
2018-03-02T17:23:04.863Z,60.98
2018-03-02T17:25:37.171Z,56.22
2018-03-02T17:28:06.692Z,47.64
2018-03-02T17:30:38.722Z,49.32
2018-03-02T17:33:08.532Z,58.75
2018-03-02T17:35:40.026Z,42.60
2018-03-02T17:38:11.068Z,51.72
2018-03-02T17:40:41.649Z,61.28
2018-03-02T17:43:16.369Z,87.29
2018-03-02T17:45:47.156Z,84.78
2018-03-02T17:48:16.761Z,72.64
2018-03-02T17:50:47.492Z,67.14
2018-03-02T17:53:16.888Z,58.42
2018-03-02T17:55:46.664Z,72.03
2018-03-02T17:58:22.460Z,64.90
2018-03-02T18:00:51.501Z,90.55
2018-03-02T18:03:21.049Z,77.68
2018-03-02T18:05:54.236Z,62.08
2018-03-02T18:08:23.584Z,47.17
2018-03-02T18:10:53.890Z,54.65
2018-03-02T18:13:23.484Z,49.15
2018-03-02T18:15:54.049Z,41.67
2018-03-02T18:18:27.860Z,45.90
2018-03-02T18:20:57.059Z,49.00
2018-03-02T18:23:27.409Z,50.80
2018-03-02T18:25:58.236Z,62.67
2018-03-02T18:28:29.984Z,48.62
2018-03-02T18:30:59.755Z,60.05
2018-03-02T18:33:31.058Z,59.33
2018-03-02T18:36:03.348Z,77.40
2018-03-02T18:38:34.296Z,87.75
2018-03-02T18:41:04.717Z,103.22
2018-03-02T18:43:34.042Z,88.93
2018-03-02T18:46:05.424Z,85.14
2018-03-02T18:48:38.264Z,78.96
2018-03-02T18:51:08.289Z,66.72
2018-03-02T18:53:38.283Z,72.78
2018-03-02T18:56:08.981Z,104.52
2018-03-02T18:58:40.231Z,221.68
2018-03-02T19:01:10.714Z,399.88
2018-03-02T19:03:43.452Z,332.18
2018-03-02T19:06:12.879Z,334.63
2018-03-02T19:08:42.595Z,250.75
2018-03-02T19:11:15.540Z,223.02
2018-03-02T19:13:45.537Z,286.02
2018-03-02T19:16:21.344Z,425.20
2018-03-02T19:18:51.086Z,420.83
2018-03-02T19:21:20.655Z,326.37
2018-03-02T19:23:51.061Z,235.23
2018-03-02T19:26:20.973Z,212.07
2018-03-02T19:28:50.834Z,162.48
2018-03-02T19:31:22.344Z,126.72
2018-03-02T19:33:51.798Z,113.20
2018-03-02T19:36:24.348Z,117.48
2018-03-02T19:38:56.545Z,111.25
2018-03-02T19:41:25.942Z,117.97
2018-03-02T19:43:55.550Z,121.55
2018-03-02T19:46:25.337Z,121.82
2018-03-02T19:48:57.023Z,131.08
2018-03-02T19:51:29.878Z,110.92
2018-03-02T19:53:59.520Z,109.40
2018-03-02T19:56:30.262Z,97.05
2018-03-02T19:59:00.960Z,89.85
2018-03-02T20:01:33.673Z,105.56
2018-03-02T20:04:06.410Z,113.55
2018-03-02T20:06:35.767Z,138.84
2018-03-02T20:09:06.823Z,101.12
2018-03-02T20:11:39.914Z,104.07
2018-03-02T20:14:10.697Z,99.80
2018-03-02T20:16:42.382Z,105.20
2018-03-02T20:19:11.935Z,105.57
2018-03-02T20:21:41.832Z,121.87
2018-03-02T20:24:12.873Z,109.03
2018-03-02T20:26:42.456Z,94.68
2018-03-02T20:29:12.800Z,97.20
2018-03-02T20:31:44.695Z,72.25
2018-03-02T20:34:15.306Z,62.78
2018-03-02T20:36:47.660Z,63.44
2018-03-02T20:39:17.660Z,68.03
2018-03-02T20:41:48.722Z,77.00
2018-03-02T20:44:21.582Z,62.34
2018-03-02T20:46:51.089Z,66.87
2018-03-02T20:49:20.656Z,63.15
2018-03-02T20:51:52.423Z,63.80
2018-03-02T20:54:22.178Z,72.03
2018-03-02T20:56:57.017Z,76.13
2018-03-02T20:59:26.676Z,72.36
2018-03-02T21:01:56.264Z,91.80
2018-03-02T21:04:26.676Z,74.10
2018-03-02T21:06:56.389Z,76.47
2018-03-02T21:09:30.231Z,83.59
2018-03-02T21:11:59.513Z,79.80
2018-03-02T21:14:30.729Z,69.96
2018-03-02T21:17:01.015Z,70.45
2018-03-02T21:19:31.549Z,63.20
2018-03-02T21:22:03.129Z,68.70
2018-03-02T21:24:35.034Z,85.85
2018-03-02T21:27:06.092Z,73.90
2018-03-02T21:29:36.901Z,80.00
2018-03-02T21:32:08.740Z,87.52
2018-03-02T21:34:37.803Z,92.30
2018-03-02T21:37:08.976Z,118.54
2018-03-02T21:39:39.292Z,109.57
2018-03-02T21:42:10.798Z,104.08
2018-03-02T21:44:40.524Z,96.55
2018-03-02T21:47:12.668Z,118.10
2018-03-02T21:49:47.206Z,118.08
2018-03-02T21:52:17.178Z,98.52
2018-03-02T21:54:48.398Z,116.92
2018-03-02T21:57:20.156Z,133.20
2018-03-02T21:59:51.565Z,131.48
2018-03-02T22:02:21.007Z,114.27
2018-03-02T22:04:50.707Z,132.75
2018-03-02T22:07:20.637Z,119.02
2018-03-02T22:09:51.226Z,118.68
2018-03-02T22:12:21.070Z,138.43
2018-03-02T22:14:52.552Z,155.18
2018-03-02T22:17:24.911Z,117.42
2018-03-02T22:19:55.345Z,127.00
2018-03-02T22:22:24.746Z,131.68
2018-03-02T22:24:55.376Z,123.43
2018-03-02T22:27:26.510Z,129.85
2018-03-02T22:29:58.173Z,131.02
2018-03-02T22:32:29.088Z,123.08
2018-03-02T22:34:58.737Z,122.53
2018-03-02T22:37:30.417Z,126.52
2018-03-02T22:40:00.320Z,108.37
2018-03-02T22:42:32.544Z,103.26
2018-03-02T22:45:04.908Z,120.30
2018-03-02T22:47:34.571Z,113.00
2018-03-02T22:50:07.394Z,111.98
2018-03-02T22:52:36.711Z,102.04
2018-03-02T22:55:07.558Z,110.17
2018-03-02T22:57:36.465Z,117.77
2018-03-02T23:00:06.665Z,120.00
2018-03-02T23:02:37.193Z,116.20
2018-03-02T23:05:11.117Z,113.22
2018-03-02T23:07:40.470Z,118.13
2018-03-02T23:10:11.930Z,118.57
2018-03-02T23:12:41.625Z,128.80
2018-03-02T23:15:14.417Z,102.36
2018-03-02T23:17:43.942Z,116.50
2018-03-02T23:20:14.561Z,138.00
2018-03-02T23:22:46.719Z,165.12
2018-03-02T23:25:17.497Z,157.04
2018-03-02T23:27:49.713Z,143.94
2018-03-02T23:30:19.732Z,143.02
2018-03-02T23:32:49.947Z,132.37
2018-03-02T23:35:19.856Z,143.25
2018-03-02T23:37:51.247Z,149.90
2018-03-02T23:40:22.048Z,161.23
2018-03-02T23:42:54.221Z,164.54
2018-03-02T23:45:25.487Z,150.02
2018-03-02T23:47:57.606Z,139.55
2018-03-02T23:50:26.615Z,126.10
2018-03-02T23:52:57.185Z,134.05
2018-03-02T23:55:35.126Z,136.07
2018-03-02T23:58:06.537Z,123.30
